sensor_id;sensor_type;location;lat;lon;timestamp;P1;durP1;ratioP1;P2;durP2;ratioP2
22774;SDS011;11554;51.106;3.684;2023-03-03T00:00:01;33.40;;;16.60;;
22774;SDS011;11554;51.106;3.684;2023-03-03T00:05:00;33.40;;;16.60;;
22774;SDS011;11554;51.106;3.684;2023-03-03T00:10:00;34.20;;;18.30;;
22774;SDS011;11554;51.106;3.684;2023-03-03T00:15:00;34.20;;;18.30;;
22774;SDS011;11554;51.106;3.684;2023-03-03T00:20:01;33.40;;;18.30;;
22774;SDS011;11554;51.106;3.684;2023-03-03T00:25:20;33.40;;;18.30;;
22774;SDS011;11554;51.106;3.684;2023-03-03T00:30:00;35.80;;;19.40;;
22774;SDS011;11554;51.106;3.684;2023-03-03T00:35:20;35.80;;;19.40;;
22774;SDS011;11554;51.106;3.684;2023-03-03T00:40:12;36.80;;;19.10;;
22774;SDS011;11554;51.106;3.684;2023-03-03T00:45:00;36.80;;;19.10;;
22774;SDS011;11554;51.106;3.684;2023-03-03T00:55:00;36.30;;;19.20;;
22774;SDS011;11554;51.106;3.684;2023-03-03T01:00:00;33.00;;;18.90;;
22774;SDS011;11554;51.106;3.684;2023-03-03T01:05:00;33.00;;;18.90;;
22774;SDS011;11554;51.106;3.684;2023-03-03T01:10:00;39.20;;;21.30;;
22774;SDS011;11554;51.106;3.684;2023-03-03T01:15:00;39.20;;;21.30;;
22774;SDS011;11554;51.106;3.684;2023-03-03T01:20:00;42.40;;;24.20;;
22774;SDS011;11554;51.106;3.684;2023-03-03T01:25:00;42.40;;;24.20;;
22774;SDS011;11554;51.106;3.684;2023-03-03T01:30:01;42.10;;;23.30;;
22774;SDS011;11554;51.106;3.684;2023-03-03T01:35:00;42.10;;;23.30;;
22774;SDS011;11554;51.106;3.684;2023-03-03T01:40:00;40.70;;;22.60;;
22774;SDS011;11554;51.106;3.684;2023-03-03T01:45:12;40.70;;;22.60;;
22774;SDS011;11554;51.106;3.684;2023-03-03T01:50:03;44.20;;;25.50;;
22774;SDS011;11554;51.106;3.684;2023-03-03T01:55:03;44.20;;;25.50;;
22774;SDS011;11554;51.106;3.684;2023-03-03T02:00:01;45.00;;;25.30;;
22774;SDS011;11554;51.106;3.684;2023-03-03T02:05:00;45.00;;;25.30;;
22774;SDS011;11554;51.106;3.684;2023-03-03T02:10:05;43.90;;;24.10;;
22774;SDS011;11554;51.106;3.684;2023-03-03T02:15:00;43.90;;;24.10;;
22774;SDS011;11554;51.106;3.684;2023-03-03T02:20:02;39.90;;;22.60;;
22774;SDS011;11554;51.106;3.684;2023-03-03T02:25:02;39.90;;;22.60;;
22774;SDS011;11554;51.106;3.684;2023-03-03T02:30:09;36.10;;;19.00;;
22774;SDS011;11554;51.106;3.684;2023-03-03T02:35:00;36.10;;;19.00;;
22774;SDS011;11554;51.106;3.684;2023-03-03T02:40:00;35.10;;;19.80;;
22774;SDS011;11554;51.106;3.684;2023-03-03T02:45:00;35.10;;;19.80;;
22774;SDS011;11554;51.106;3.684;2023-03-03T02:50:00;38.30;;;21.10;;
22774;SDS011;11554;51.106;3.684;2023-03-03T02:55:00;38.30;;;21.10;;
22774;SDS011;11554;51.106;3.684;2023-03-03T03:00:00;35.90;;;19.80;;
22774;SDS011;11554;51.106;3.684;2023-03-03T03:05:00;35.90;;;19.80;;
22774;SDS011;11554;51.106;3.684;2023-03-03T03:10:00;30.10;;;17.30;;
22774;SDS011;11554;51.106;3.684;2023-03-03T03:15:00;30.10;;;17.30;;
22774;SDS011;11554;51.106;3.684;2023-03-03T03:20:00;27.30;;;15.40;;
22774;SDS011;11554;51.106;3.684;2023-03-03T03:25:00;27.30;;;15.40;;
22774;SDS011;11554;51.106;3.684;2023-03-03T03:30:00;25.30;;;15.00;;
22774;SDS011;11554;51.106;3.684;2023-03-03T03:35:00;25.30;;;15.00;;
22774;SDS011;11554;51.106;3.684;2023-03-03T03:40:00;23.00;;;12.70;;
22774;SDS011;11554;51.106;3.684;2023-03-03T03:45:00;23.00;;;12.70;;
22774;SDS011;11554;51.106;3.684;2023-03-03T03:50:00;19.80;;;12.20;;
22774;SDS011;11554;51.106;3.684;2023-03-03T03:55:00;19.80;;;12.20;;
22774;SDS011;11554;51.106;3.684;2023-03-03T04:00:00;18.50;;;12.00;;
22774;SDS011;11554;51.106;3.684;2023-03-03T04:05:00;18.50;;;12.00;;
22774;SDS011;11554;51.106;3.684;2023-03-03T04:10:00;20.00;;;12.00;;
22774;SDS011;11554;51.106;3.684;2023-03-03T04:15:00;20.00;;;12.00;;
22774;SDS011;11554;51.106;3.684;2023-03-03T04:20:00;20.20;;;11.90;;
22774;SDS011;11554;51.106;3.684;2023-03-03T04:25:00;20.20;;;11.90;;
22774;SDS011;11554;51.106;3.684;2023-03-03T04:30:00;20.10;;;12.00;;
22774;SDS011;11554;51.106;3.684;2023-03-03T04:35:00;20.10;;;12.00;;
22774;SDS011;11554;51.106;3.684;2023-03-03T04:40:00;19.50;;;11.90;;
22774;SDS011;11554;51.106;3.684;2023-03-03T04:45:00;19.50;;;11.90;;
22774;SDS011;11554;51.106;3.684;2023-03-03T04:50:00;20.50;;;12.40;;
22774;SDS011;11554;51.106;3.684;2023-03-03T04:55:00;20.50;;;12.40;;
22774;SDS011;11554;51.106;3.684;2023-03-03T05:00:00;22.20;;;11.90;;
22774;SDS011;11554;51.106;3.684;2023-03-03T05:05:00;22.20;;;11.90;;
22774;SDS011;11554;51.106;3.684;2023-03-03T05:10:00;21.10;;;12.10;;
22774;SDS011;11554;51.106;3.684;2023-03-03T05:15:00;21.10;;;12.10;;
22774;SDS011;11554;51.106;3.684;2023-03-03T05:20:00;22.20;;;12.20;;
22774;SDS011;11554;51.106;3.684;2023-03-03T05:25:00;22.20;;;12.20;;
22774;SDS011;11554;51.106;3.684;2023-03-03T05:30:00;24.80;;;12.90;;
22774;SDS011;11554;51.106;3.684;2023-03-03T05:35:00;24.80;;;12.90;;
22774;SDS011;11554;51.106;3.684;2023-03-03T05:40:00;21.30;;;12.20;;
22774;SDS011;11554;51.106;3.684;2023-03-03T05:45:00;21.30;;;12.20;;
22774;SDS011;11554;51.106;3.684;2023-03-03T05:50:00;19.10;;;11.50;;
22774;SDS011;11554;51.106;3.684;2023-03-03T05:55:00;19.10;;;11.50;;
22774;SDS011;11554;51.106;3.684;2023-03-03T06:00:00;19.10;;;11.40;;
22774;SDS011;11554;51.106;3.684;2023-03-03T06:05:00;19.10;;;11.40;;
22774;SDS011;11554;51.106;3.684;2023-03-03T06:10:01;25.60;;;14.30;;
22774;SDS011;11554;51.106;3.684;2023-03-03T06:15:00;25.60;;;14.30;;
22774;SDS011;11554;51.106;3.684;2023-03-03T06:20:00;29.70;;;17.70;;
22774;SDS011;11554;51.106;3.684;2023-03-03T06:25:00;29.70;;;17.70;;
22774;SDS011;11554;51.106;3.684;2023-03-03T06:30:00;35.10;;;19.30;;
22774;SDS011;11554;51.106;3.684;2023-03-03T06:35:00;35.10;;;19.30;;
22774;SDS011;11554;51.106;3.684;2023-03-03T06:40:00;29.20;;;18.40;;
22774;SDS011;11554;51.106;3.684;2023-03-03T06:45:00;29.20;;;18.40;;
22774;SDS011;11554;51.106;3.684;2023-03-03T06:50:00;37.50;;;21.20;;
22774;SDS011;11554;51.106;3.684;2023-03-03T06:55:09;37.50;;;21.20;;
22774;SDS011;11554;51.106;3.684;2023-03-03T07:00:13;36.70;;;21.30;;
22774;SDS011;11554;51.106;3.684;2023-03-03T07:05:00;36.70;;;21.30;;
22774;SDS011;11554;51.106;3.684;2023-03-03T07:10:00;40.20;;;22.40;;
22774;SDS011;11554;51.106;3.684;2023-03-03T07:15:11;40.20;;;22.40;;
22774;SDS011;11554;51.106;3.684;2023-03-03T07:20:00;40.40;;;23.60;;
22774;SDS011;11554;51.106;3.684;2023-03-03T07:25:01;40.40;;;23.60;;
22774;SDS011;11554;51.106;3.684;2023-03-03T07:30:17;35.10;;;21.10;;
22774;SDS011;11554;51.106;3.684;2023-03-03T07:35:01;35.10;;;21.10;;
22774;SDS011;11554;51.106;3.684;2023-03-03T07:45:00;43.50;;;23.90;;
22774;SDS011;11554;51.106;3.684;2023-03-03T07:50:12;30.40;;;18.50;;
22774;SDS011;11554;51.106;3.684;2023-03-03T07:55:01;30.40;;;18.50;;
22774;SDS011;11554;51.106;3.684;2023-03-03T08:00:40;31.30;;;18.10;;
22774;SDS011;11554;51.106;3.684;2023-03-03T08:05:00;31.30;;;18.10;;
22774;SDS011;11554;51.106;3.684;2023-03-03T08:10:00;29.80;;;17.40;;
22774;SDS011;11554;51.106;3.684;2023-03-03T08:15:14;29.80;;;17.40;;
22774;SDS011;11554;51.106;3.684;2023-03-03T08:20:00;26.40;;;14.70;;
22774;SDS011;11554;51.106;3.684;2023-03-03T08:25:00;26.40;;;14.70;;
22774;SDS011;11554;51.106;3.684;2023-03-03T08:30:00;26.10;;;15.10;;
22774;SDS011;11554;51.106;3.684;2023-03-03T08:35:00;26.10;;;15.10;;
22774;SDS011;11554;51.106;3.684;2023-03-03T08:40:00;33.00;;;17.40;;
22774;SDS011;11554;51.106;3.684;2023-03-03T08:45:00;33.00;;;17.40;;
22774;SDS011;11554;51.106;3.684;2023-03-03T08:50:00;30.70;;;17.20;;
22774;SDS011;11554;51.106;3.684;2023-03-03T08:55:00;30.70;;;17.20;;
22774;SDS011;11554;51.106;3.684;2023-03-03T09:00:00;25.30;;;14.30;;
22774;SDS011;11554;51.106;3.684;2023-03-03T09:05:00;25.30;;;14.30;;
22774;SDS011;11554;51.106;3.684;2023-03-03T09:10:00;47.70;;;24.50;;
22774;SDS011;11554;51.106;3.684;2023-03-03T09:15:12;47.70;;;24.50;;
22774;SDS011;11554;51.106;3.684;2023-03-03T09:20:16;49.30;;;26.10;;
22774;SDS011;11554;51.106;3.684;2023-03-03T09:25:00;49.30;;;26.10;;
22774;SDS011;11554;51.106;3.684;2023-03-03T09:30:02;43.80;;;23.20;;
22774;SDS011;11554;51.106;3.684;2023-03-03T09:40:14;47.00;;;27.10;;
22774;SDS011;11554;51.106;3.684;2023-03-03T09:45:12;47.00;;;27.10;;
22774;SDS011;11554;51.106;3.684;2023-03-03T09:50:08;63.80;;;34.80;;
22774;SDS011;11554;51.106;3.684;2023-03-03T09:55:12;63.80;;;34.80;;
22774;SDS011;11554;51.106;3.684;2023-03-03T10:00:15;68.30;;;38.60;;
22774;SDS011;11554;51.106;3.684;2023-03-03T10:05:11;68.30;;;38.60;;
22774;SDS011;11554;51.106;3.684;2023-03-03T10:15:20;62.50;;;31.80;;
22774;SDS011;11554;51.106;3.684;2023-03-03T10:20:10;64.60;;;33.30;;
22774;SDS011;11554;51.106;3.684;2023-03-03T10:25:11;64.60;;;33.30;;
22774;SDS011;11554;51.106;3.684;2023-03-03T10:30:11;30.80;;;17.10;;
22774;SDS011;11554;51.106;3.684;2023-03-03T10:35:10;30.80;;;17.10;;
22774;SDS011;11554;51.106;3.684;2023-03-03T10:40:07;34.90;;;20.00;;
22774;SDS011;11554;51.106;3.684;2023-03-03T10:45:24;34.90;;;20.00;;
22774;SDS011;11554;51.106;3.684;2023-03-03T10:50:09;29.40;;;16.90;;
22774;SDS011;11554;51.106;3.684;2023-03-03T10:55:14;29.40;;;16.90;;
22774;SDS011;11554;51.106;3.684;2023-03-03T11:00:14;21.70;;;11.70;;
22774;SDS011;11554;51.106;3.684;2023-03-03T11:05:11;21.70;;;11.70;;
22774;SDS011;11554;51.106;3.684;2023-03-03T11:10:14;29.20;;;16.90;;
22774;SDS011;11554;51.106;3.684;2023-03-03T11:15:13;29.20;;;16.90;;
22774;SDS011;11554;51.106;3.684;2023-03-03T11:20:02;24.30;;;12.40;;
22774;SDS011;11554;51.106;3.684;2023-03-03T11:25:10;24.30;;;12.40;;
22774;SDS011;11554;51.106;3.684;2023-03-03T11:30:10;28.30;;;15.30;;
22774;SDS011;11554;51.106;3.684;2023-03-03T11:35:17;28.30;;;15.30;;
22774;SDS011;11554;51.106;3.684;2023-03-03T11:40:05;29.50;;;16.80;;
22774;SDS011;11554;51.106;3.684;2023-03-03T11:45:04;29.50;;;16.80;;
22774;SDS011;11554;51.106;3.684;2023-03-03T11:50:02;31.70;;;18.20;;
22774;SDS011;11554;51.106;3.684;2023-03-03T11:55:05;31.70;;;18.20;;
22774;SDS011;11554;51.106;3.684;2023-03-03T12:00:05;36.40;;;22.30;;
22774;SDS011;11554;51.106;3.684;2023-03-03T12:05:05;36.40;;;22.30;;
22774;SDS011;11554;51.106;3.684;2023-03-03T12:10:07;23.70;;;12.60;;
22774;SDS011;11554;51.106;3.684;2023-03-03T12:15:08;23.70;;;12.60;;
22774;SDS011;11554;51.106;3.684;2023-03-03T12:20:06;19.80;;;11.30;;
22774;SDS011;11554;51.106;3.684;2023-03-03T12:25:10;19.80;;;11.30;;
22774;SDS011;11554;51.106;3.684;2023-03-03T12:30:07;25.40;;;15.30;;
22774;SDS011;11554;51.106;3.684;2023-03-03T12:35:06;25.40;;;15.30;;
22774;SDS011;11554;51.106;3.684;2023-03-03T12:40:07;18.60;;;11.50;;
22774;SDS011;11554;51.106;3.684;2023-03-03T12:45:10;18.60;;;11.50;;
22774;SDS011;11554;51.106;3.684;2023-03-03T12:50:17;16.30;;;11.10;;
22774;SDS011;11554;51.106;3.684;2023-03-03T12:55:04;16.30;;;11.10;;
22774;SDS011;11554;51.106;3.684;2023-03-03T13:05:06;16.20;;;8.70;;
22774;SDS011;11554;51.106;3.684;2023-03-03T13:10:04;13.40;;;8.20;;
22774;SDS011;11554;51.106;3.684;2023-03-03T13:15:06;13.40;;;8.20;;
22774;SDS011;11554;51.106;3.684;2023-03-03T13:20:02;12.60;;;7.30;;
22774;SDS011;11554;51.106;3.684;2023-03-03T13:25:06;12.60;;;7.30;;
22774;SDS011;11554;51.106;3.684;2023-03-03T13:30:03;11.80;;;6.80;;
22774;SDS011;11554;51.106;3.684;2023-03-03T13:35:05;11.80;;;6.80;;
22774;SDS011;11554;51.106;3.684;2023-03-03T13:40:03;11.70;;;7.10;;
22774;SDS011;11554;51.106;3.684;2023-03-03T13:45:04;11.70;;;7.10;;
22774;SDS011;11554;51.106;3.684;2023-03-03T13:50:13;11.50;;;5.90;;
22774;SDS011;11554;51.106;3.684;2023-03-03T13:55:13;11.50;;;5.90;;
22774;SDS011;11554;51.106;3.684;2023-03-03T14:00:09;12.00;;;7.20;;
22774;SDS011;11554;51.106;3.684;2023-03-03T14:05:03;12.00;;;7.20;;
22774;SDS011;11554;51.106;3.684;2023-03-03T14:10:02;9.30;;;6.30;;
22774;SDS011;11554;51.106;3.684;2023-03-03T14:15:08;9.30;;;6.30;;
22774;SDS011;11554;51.106;3.684;2023-03-03T14:20:11;10.40;;;5.50;;
22774;SDS011;11554;51.106;3.684;2023-03-03T14:25:04;10.40;;;5.50;;
22774;SDS011;11554;51.106;3.684;2023-03-03T14:35:20;9.70;;;5.50;;
22774;SDS011;11554;51.106;3.684;2023-03-03T14:40:14;9.70;;;5.50;;
22774;SDS011;11554;51.106;3.684;2023-03-03T14:45:01;9.70;;;5.50;;
22774;SDS011;11554;51.106;3.684;2023-03-03T14:50:00;9.00;;;5.50;;
22774;SDS011;11554;51.106;3.684;2023-03-03T14:55:02;9.00;;;5.50;;
22774;SDS011;11554;51.106;3.684;2023-03-03T15:00:07;8.20;;;4.60;;
22774;SDS011;11554;51.106;3.684;2023-03-03T15:05:18;9.20;;;5.10;;
22774;SDS011;11554;51.106;3.684;2023-03-03T15:10:00;9.20;;;5.10;;
22774;SDS011;11554;51.106;3.684;2023-03-03T15:15:06;9.20;;;5.10;;
22774;SDS011;11554;51.106;3.684;2023-03-03T15:20:12;8.20;;;4.60;;
22774;SDS011;11554;51.106;3.684;2023-03-03T15:25:03;8.20;;;4.60;;
22774;SDS011;11554;51.106;3.684;2023-03-03T15:30:06;7.50;;;4.90;;
22774;SDS011;11554;51.106;3.684;2023-03-03T15:35:09;7.50;;;4.90;;
22774;SDS011;11554;51.106;3.684;2023-03-03T15:40:08;10.40;;;5.90;;
22774;SDS011;11554;51.106;3.684;2023-03-03T15:45:09;10.40;;;5.90;;
22774;SDS011;11554;51.106;3.684;2023-03-03T15:50:13;9.40;;;5.90;;
22774;SDS011;11554;51.106;3.684;2023-03-03T15:55:13;8.90;;;6.70;;
22774;SDS011;11554;51.106;3.684;2023-03-03T16:00:17;8.90;;;6.70;;
22774;SDS011;11554;51.106;3.684;2023-03-03T16:05:04;8.90;;;6.70;;
22774;SDS011;11554;51.106;3.684;2023-03-03T16:10:07;9.70;;;7.80;;
22774;SDS011;11554;51.106;3.684;2023-03-03T16:15:14;10.70;;;7.50;;
22774;SDS011;11554;51.106;3.684;2023-03-03T16:20:10;10.70;;;7.50;;
22774;SDS011;11554;51.106;3.684;2023-03-03T16:25:15;9.40;;;7.70;;
22774;SDS011;11554;51.106;3.684;2023-03-03T16:30:10;9.40;;;7.70;;
22774;SDS011;11554;51.106;3.684;2023-03-03T16:35:14;9.90;;;7.00;;
22774;SDS011;11554;51.106;3.684;2023-03-03T16:40:07;9.90;;;7.00;;
22774;SDS011;11554;51.106;3.684;2023-03-03T16:45:05;8.70;;;5.00;;
22774;SDS011;11554;51.106;3.684;2023-03-03T16:50:12;8.70;;;5.00;;
22774;SDS011;11554;51.106;3.684;2023-03-03T16:55:06;7.10;;;3.40;;
22774;SDS011;11554;51.106;3.684;2023-03-03T17:00:04;7.10;;;3.40;;
22774;SDS011;11554;51.106;3.684;2023-03-03T17:05:05;8.90;;;4.30;;
22774;SDS011;11554;51.106;3.684;2023-03-03T17:10:15;8.90;;;4.30;;
22774;SDS011;11554;51.106;3.684;2023-03-03T17:15:08;7.90;;;5.70;;
22774;SDS011;11554;51.106;3.684;2023-03-03T17:20:11;7.90;;;5.70;;
22774;SDS011;11554;51.106;3.684;2023-03-03T17:25:06;7.70;;;4.20;;
22774;SDS011;11554;51.106;3.684;2023-03-03T17:30:07;7.70;;;4.20;;
22774;SDS011;11554;51.106;3.684;2023-03-03T17:35:13;7.50;;;5.20;;
22774;SDS011;11554;51.106;3.684;2023-03-03T17:40:10;7.50;;;5.20;;
22774;SDS011;11554;51.106;3.684;2023-03-03T17:45:06;8.50;;;5.70;;
22774;SDS011;11554;51.106;3.684;2023-03-03T17:50:09;8.50;;;5.70;;
22774;SDS011;11554;51.106;3.684;2023-03-03T17:55:16;7.40;;;4.90;;
22774;SDS011;11554;51.106;3.684;2023-03-03T18:00:08;7.40;;;4.90;;
22774;SDS011;11554;51.106;3.684;2023-03-03T18:10:19;7.30;;;4.10;;
22774;SDS011;11554;51.106;3.684;2023-03-03T18:20:15;9.50;;;5.20;;
22774;SDS011;11554;51.106;3.684;2023-03-03T18:25:03;7.30;;;4.50;;
22774;SDS011;11554;51.106;3.684;2023-03-03T18:30:19;7.30;;;4.50;;
22774;SDS011;11554;51.106;3.684;2023-03-03T18:45:45;5.90;;;3.60;;
22774;SDS011;11554;51.106;3.684;2023-03-03T18:50:03;5.90;;;3.60;;
22774;SDS011;11554;51.106;3.684;2023-03-03T18:55:21;5.10;;;2.10;;
22774;SDS011;11554;51.106;3.684;2023-03-03T19:00:11;5.10;;;2.10;;
22774;SDS011;11554;51.106;3.684;2023-03-03T19:05:16;5.70;;;2.30;;
22774;SDS011;11554;51.106;3.684;2023-03-03T19:10:01;5.70;;;2.30;;
22774;SDS011;11554;51.106;3.684;2023-03-03T19:15:00;5.30;;;2.30;;
22774;SDS011;11554;51.106;3.684;2023-03-03T19:20:07;5.30;;;2.30;;
22774;SDS011;11554;51.106;3.684;2023-03-03T19:25:11;4.50;;;2.50;;
22774;SDS011;11554;51.106;3.684;2023-03-03T19:30:13;4.50;;;2.50;;
22774;SDS011;11554;51.106;3.684;2023-03-03T19:35:14;6.10;;;2.80;;
22774;SDS011;11554;51.106;3.684;2023-03-03T19:40:02;6.10;;;2.80;;
22774;SDS011;11554;51.106;3.684;2023-03-03T19:45:09;4.10;;;3.10;;
22774;SDS011;11554;51.106;3.684;2023-03-03T19:50:11;4.10;;;3.10;;
22774;SDS011;11554;51.106;3.684;2023-03-03T19:55:10;4.90;;;3.00;;
22774;SDS011;11554;51.106;3.684;2023-03-03T20:00:06;4.90;;;3.00;;
22774;SDS011;11554;51.106;3.684;2023-03-03T20:05:07;6.90;;;3.90;;
22774;SDS011;11554;51.106;3.684;2023-03-03T20:10:09;6.90;;;3.90;;
22774;SDS011;11554;51.106;3.684;2023-03-03T20:15:06;7.60;;;3.60;;
22774;SDS011;11554;51.106;3.684;2023-03-03T20:20:06;7.60;;;3.60;;
22774;SDS011;11554;51.106;3.684;2023-03-03T20:25:10;6.80;;;3.80;;
22774;SDS011;11554;51.106;3.684;2023-03-03T20:30:13;6.80;;;3.80;;
22774;SDS011;11554;51.106;3.684;2023-03-03T20:35:09;8.40;;;4.20;;
22774;SDS011;11554;51.106;3.684;2023-03-03T20:40:07;8.40;;;4.20;;
22774;SDS011;11554;51.106;3.684;2023-03-03T20:45:11;7.90;;;4.50;;
22774;SDS011;11554;51.106;3.684;2023-03-03T20:50:08;7.90;;;4.50;;
22774;SDS011;11554;51.106;3.684;2023-03-03T20:55:07;9.40;;;3.90;;
22774;SDS011;11554;51.106;3.684;2023-03-03T21:00:04;9.40;;;3.90;;
22774;SDS011;11554;51.106;3.684;2023-03-03T21:05:08;11.90;;;4.80;;
22774;SDS011;11554;51.106;3.684;2023-03-03T21:10:10;11.90;;;4.80;;
22774;SDS011;11554;51.106;3.684;2023-03-03T21:15:01;8.40;;;3.40;;
22774;SDS011;11554;51.106;3.684;2023-03-03T21:20:18;8.40;;;3.40;;
22774;SDS011;11554;51.106;3.684;2023-03-03T21:25:00;10.10;;;3.60;;
22774;SDS011;11554;51.106;3.684;2023-03-03T21:30:02;10.10;;;3.60;;
22774;SDS011;11554;51.106;3.684;2023-03-03T21:35:05;11.10;;;4.00;;
22774;SDS011;11554;51.106;3.684;2023-03-03T21:40:10;11.10;;;4.00;;
22774;SDS011;11554;51.106;3.684;2023-03-03T21:45:08;13.10;;;4.80;;
22774;SDS011;11554;51.106;3.684;2023-03-03T21:50:00;13.10;;;4.80;;
22774;SDS011;11554;51.106;3.684;2023-03-03T21:55:00;12.40;;;4.20;;
22774;SDS011;11554;51.106;3.684;2023-03-03T22:00:00;12.40;;;4.20;;
22774;SDS011;11554;51.106;3.684;2023-03-03T22:05:00;18.50;;;6.30;;
22774;SDS011;11554;51.106;3.684;2023-03-03T22:10:00;18.50;;;6.30;;
22774;SDS011;11554;51.106;3.684;2023-03-03T22:15:00;12.30;;;3.60;;
22774;SDS011;11554;51.106;3.684;2023-03-03T22:20:00;12.30;;;3.60;;
22774;SDS011;11554;51.106;3.684;2023-03-03T22:25:00;15.30;;;3.90;;
22774;SDS011;11554;51.106;3.684;2023-03-03T22:30:00;15.30;;;3.90;;
22774;SDS011;11554;51.106;3.684;2023-03-03T22:35:00;13.60;;;3.30;;
22774;SDS011;11554;51.106;3.684;2023-03-03T22:40:00;13.60;;;3.30;;
22774;SDS011;11554;51.106;3.684;2023-03-03T22:45:00;15.10;;;3.00;;
22774;SDS011;11554;51.106;3.684;2023-03-03T22:50:00;15.10;;;3.00;;
22774;SDS011;11554;51.106;3.684;2023-03-03T22:55:00;12.40;;;2.70;;
22774;SDS011;11554;51.106;3.684;2023-03-03T23:00:00;12.40;;;2.70;;
22774;SDS011;11554;51.106;3.684;2023-03-03T23:05:00;16.00;;;3.00;;
22774;SDS011;11554;51.106;3.684;2023-03-03T23:10:01;16.00;;;3.00;;
22774;SDS011;11554;51.106;3.684;2023-03-03T23:15:00;12.00;;;2.80;;
22774;SDS011;11554;51.106;3.684;2023-03-03T23:20:00;12.00;;;2.80;;
22774;SDS011;11554;51.106;3.684;2023-03-03T23:25:00;14.80;;;3.10;;
22774;SDS011;11554;51.106;3.684;2023-03-03T23:30:00;14.80;;;3.10;;
22774;SDS011;11554;51.106;3.684;2023-03-03T23:35:00;15.70;;;3.70;;
22774;SDS011;11554;51.106;3.684;2023-03-03T23:40:00;15.70;;;3.70;;
22774;SDS011;11554;51.106;3.684;2023-03-03T23:45:00;20.30;;;4.50;;
22774;SDS011;11554;51.106;3.684;2023-03-03T23:50:00;20.30;;;4.50;;
22774;SDS011;11554;51.106;3.684;2023-03-03T23:55:00;14.80;;;3.80;;
